Sheng Jia 1 — XUGG7 — position and weather

sailwx.info

Track history (hours):
 
Tides and Currents Weather Stations Pressure Air Temp Water Temp Dewpoint Dewpoint Depression Visibility Wind Speed Wind Dir Waves Ship Positions

Sheng Jia 1

Last reported at 2015-Apr-28 13:06 UTC. Time now 2015-Apr-28 19:48 UTC.
Position N 37°25' E 141°20'.

Length 73 m; draft 3.2 m.

Type: Cargo ship. MMSI: 515744000.

Date/timePositionNaut miles runAvg speedWind from/ knotsBaromVisibWave heightAir tempDewpointWater temp
2015-Apr-28 13:06N 37°25' E 141°20'  
2015-Apr-24 21:13N 35°44' E 140°57'7 9.2
2015-Apr-24 20:27N 35°38' E 140°52'1410.4
2015-Apr-24 19:03N 35°26' E 140°42'3810.8
2015-Apr-24 15:32N 34°59' E 140°09'1110.4
2015-Apr-24 14:28N 34°53' E 139°58'10 8.9
2015-Apr-24 13:23N 34°55' E 139°46'7 8.5
2015-Apr-24 12:33N 35°02' E 139°44'9 9.0
2015-Apr-24 11:33N 35°11' E 139°46'9 8.6
2015-Apr-24 10:33N 35°19' E 139°43'8 7.7
2015-Apr-24 09:33N 35°26' E 139°46'9 8.6
2015-Apr-24 08:33N 35°31' E 139°55'9 9.1
2015-Apr-24 07:33N 35°36' E 140°05'1 1.4
2015-Apr-24 06:33N 35°36' E 140°06'0 0.0
2015-Apr-24 05:33N 35°36' E 140°06'0 0.0
2015-Apr-24 04:08N 35°36' E 140°06'0 0.0
2015-Apr-24 02:17N 35°36' E 140°06'0 0.0
2015-Apr-24 01:20N 35°36' E 140°06'0 0.0
2015-Apr-24 00:32N 35°36' E 140°06'0 0.0
2015-Apr-23 23:29N 35°36' E 140°06'0 0.0
2015-Apr-23 22:11N 35°36' E 140°06'0 0.0
2015-Apr-23 21:14N 35°36' E 140°06'3 5.1
2015-Apr-23 20:33N 35°35' E 140°02'0 0.4
2015-Apr-23 19:28N 35°35' E 140°02'0 0.0
2015-Apr-23 18:22N 35°35' E 140°02'0 0.1
2015-Apr-23 17:28N 35°35' E 140°02'7 8.0
2015-Apr-23 16:33N 35°31' E 139°55'9 9.4
2015-Apr-23 15:33N 35°24' E 139°46'8 8.3
2015-Apr-23 14:32N 35°16' E 139°47'9 9.3
2015-Apr-23 13:33N 35°07' E 139°44'10 9.9
2015-Apr-23 12:30N 34°60' E 139°34'9 9.9
2015-Apr-23 11:33N 34°54' E 139°25'  
2015-Apr-21 07:27N 33°58' E 130°41'20 9.1
2015-Apr-21 05:12N 33°53' E 130°17'9 9.2
2015-Apr-21 04:16N 33°48' E 130°09'9 9.1
2015-Apr-21 03:14N 33°43' E 129°59'  
2015-Apr-18 15:07N 30°33' E 122°27'8 7.7
2015-Apr-18 14:07N 30°33' E 122°18'3 5.8
2015-Apr-18 13:32N 30°33' E 122°14'  
Track history (hours):
 
Tides and Currents Weather Stations Pressure Air Temp Water Temp Dewpoint Dewpoint Depression Visibility Wind Speed Wind Dir Waves Ship Positions

Sheng Jia 1

Last reported at 2015-Apr-28 13:06 UTC. Time now 2015-Apr-28 19:48 UTC.
Position N 37°25' E 141°20'.

Length 73 m; draft 3.2 m.

Type: Cargo ship. MMSI: 515744000.

Date/timePositionNaut miles runAvg speedWind from/ knotsBaromVisibWave heightAir tempDewpointWater temp
2015-Apr-28 13:06N 37°25' E 141°20'  
2015-Apr-24 21:13N 35°44' E 140°57'7 9.2
2015-Apr-24 20:27N 35°38' E 140°52'1410.4
2015-Apr-24 19:03N 35°26' E 140°42'3810.8
2015-Apr-24 15:32N 34°59' E 140°09'1110.4
2015-Apr-24 14:28N 34°53' E 139°58'10 8.9
2015-Apr-24 13:23N 34°55' E 139°46'7 8.5
2015-Apr-24 12:33N 35°02' E 139°44'9 9.0
2015-Apr-24 11:33N 35°11' E 139°46'9 8.6
2015-Apr-24 10:33N 35°19' E 139°43'8 7.7
2015-Apr-24 09:33N 35°26' E 139°46'9 8.6
2015-Apr-24 08:33N 35°31' E 139°55'9 9.1
2015-Apr-24 07:33N 35°36' E 140°05'1 1.4
2015-Apr-24 06:33N 35°36' E 140°06'0 0.0
2015-Apr-24 05:33N 35°36' E 140°06'0 0.0
2015-Apr-24 04:08N 35°36' E 140°06'0 0.0
2015-Apr-24 02:17N 35°36' E 140°06'0 0.0
2015-Apr-24 01:20N 35°36' E 140°06'0 0.0
2015-Apr-24 00:32N 35°36' E 140°06'0 0.0
2015-Apr-23 23:29N 35°36' E 140°06'0 0.0
2015-Apr-23 22:11N 35°36' E 140°06'0 0.0
2015-Apr-23 21:14N 35°36' E 140°06'3 5.1
2015-Apr-23 20:33N 35°35' E 140°02'0 0.4
2015-Apr-23 19:28N 35°35' E 140°02'0 0.0
2015-Apr-23 18:22N 35°35' E 140°02'0 0.1
2015-Apr-23 17:28N 35°35' E 140°02'7 8.0
2015-Apr-23 16:33N 35°31' E 139°55'9 9.4
2015-Apr-23 15:33N 35°24' E 139°46'8 8.3
2015-Apr-23 14:32N 35°16' E 139°47'9 9.3
2015-Apr-23 13:33N 35°07' E 139°44'10 9.9
2015-Apr-23 12:30N 34°60' E 139°34'9 9.9
2015-Apr-23 11:33N 34°54' E 139°25'  
2015-Apr-21 07:27N 33°58' E 130°41'20 9.1
2015-Apr-21 05:12N 33°53' E 130°17'9 9.2
2015-Apr-21 04:16N 33°48' E 130°09'9 9.1
2015-Apr-21 03:14N 33°43' E 129°59'  
2015-Apr-18 15:07N 30°33' E 122°27'8 7.7
2015-Apr-18 14:07N 30°33' E 122°18'3 5.8
2015-Apr-18 13:32N 30°33' E 122°14'  

Dump ship's entire track history